Time;durP1;ratioP1;P1;durP2;ratioP2;P2;SDS_P1;SDS_P2;PMS_P1;PMS_P2;Temp;Humidity;BMP_temperature;BMP_pressure;BME280_temperature;BME280_humidity;BME280_pressure;Samples;Min_cycle;Max_cycle;Signal;HPM_P1;HPM_P2
2021/03/22 00:00:55;;;;;;;29.88;8.15;;;4.10;83.90;;;;;;5071272;28;20029;-56
2021/03/22 00:03:22;;;;;;;31.05;7.30;;;4.10;83.80;;;;;;5071256;28;20434;-52
2021/03/22 00:05:48;;;;;;;23.05;6.93;;;4.00;83.90;;;;;;5053828;28;20418;-55
2021/03/22 00:08:15;;;;;;;24.48;6.53;;;4.00;84.00;;;;;;5070691;28;20377;-55
2021/03/22 00:10:43;;;;;;;26.08;6.15;;;4.10;83.30;;;;;;5071105;28;20086;-55
2021/03/22 00:13:10;;;;;;;20.85;6.47;;;4.20;83.00;;;;;;5071935;28;20036;-55
2021/03/22 00:15:36;;;;;;;29.40;6.70;;;4.30;82.70;;;;;;5073100;28;20132;-53
2021/03/22 00:18:04;;;;;;;34.63;7.18;;;4.30;82.40;;;;;;5044592;28;20428;-53
2021/03/22 00:20:30;;;;;;;25.63;6.30;;;4.30;82.30;;;;;;5071699;28;20086;-51
2021/03/22 00:22:56;;;;;;;25.55;6.40;;;4.20;82.40;;;;;;5070811;28;20036;-54
2021/03/22 00:25:21;;;;;;;24.67;5.90;;;4.30;82.50;;;;;;5071871;28;20135;-53
2021/03/22 00:27:47;;;;;;;20.88;6.30;;;4.20;82.40;;;;;;5072371;28;20036;-57
2021/03/22 00:30:20;;;;;;;27.27;6.18;;;4.20;82.40;;;;;;5072183;28;20534;-54
2021/03/22 00:32:47;;;;;;;26.63;5.82;;;4.20;82.30;;;;;;5072460;28;20542;-51
2021/03/22 00:35:13;;;;;;;28.17;6.50;;;4.20;82.00;;;;;;5075630;28;20021;-57
2021/03/22 00:37:38;;;;;;;32.33;6.78;;;4.20;82.40;;;;;;5075025;28;20036;-54
2021/03/22 00:40:04;;;;;;;18.55;6.68;;;4.20;82.50;;;;;;5057304;28;20119;-54
2021/03/22 00:42:30;;;;;;;26.73;5.85;;;4.30;82.80;;;;;;5072704;28;20040;-53
2021/03/22 00:44:55;;;;;;;25.45;6.13;;;4.40;81.90;;;;;;5072274;28;20033;-54
2021/03/22 00:47:21;;;;;;;29.52;6.35;;;4.30;82.00;;;;;;5072059;28;20044;-54
2021/03/22 00:49:47;;;;;;;25.38;5.85;;;4.30;81.90;;;;;;5037244;28;20066;-53
2021/03/22 00:52:12;;;;;;;21.40;5.80;;;4.20;82.60;;;;;;5071938;28;20047;-53
2021/03/22 00:54:40;;;;;;;23.80;5.72;;;4.20;82.30;;;;;;5072095;28;20472;-55
2021/03/22 00:57:07;;;;;;;22.52;6.18;;;4.30;81.90;;;;;;5055308;28;20056;-55
2021/03/22 00:59:33;;;;;;;25.30;6.53;;;4.40;81.50;;;;;;5071847;28;20037;-54
2021/03/22 01:01:59;;;;;;;21.73;6.93;;;4.40;81.50;;;;;;5053863;28;20045;-56
2021/03/22 01:04:25;;;;;;;28.67;5.93;;;4.50;81.10;;;;;;5072028;28;20112;-53
2021/03/22 01:06:50;;;;;;;24.92;6.32;;;4.40;81.40;;;;;;5071680;28;20044;-56
2021/03/22 01:09:16;;;;;;;25.38;6.35;;;4.30;81.60;;;;;;5071471;28;20474;-57
2021/03/22 01:11:41;;;;;;;34.20;9.35;;;4.30;81.70;;;;;;5073706;28;20025;-53
2021/03/22 01:14:07;;;;;;;18.25;5.50;;;4.40;81.50;;;;;;5071897;28;20036;-54
2021/03/22 01:16:35;;;;;;;22.73;5.85;;;4.30;81.00;;;;;;5073787;28;20376;-55
2021/03/22 01:19:09;;;;;;;20.40;5.22;;;4.40;81.20;;;;;;5062135;28;20028;-53
2021/03/22 01:21:41;;;;;;;30.85;7.28;;;4.30;81.10;;;;;;5066175;28;20029;-55
2021/03/22 01:24:10;;;;;;;23.85;6.25;;;4.20;81.70;;;;;;5071824;28;20036;-56
2021/03/22 01:26:37;;;;;;;25.60;5.70;;;4.30;81.40;;;;;;5052721;28;20028;-52
2021/03/22 01:29:07;;;;;;;25.40;5.82;;;4.30;81.40;;;;;;5070629;28;20056;-54
2021/03/22 01:31:33;;;;;;;28.23;6.60;;;4.40;80.80;;;;;;5071084;28;20032;-52
2021/03/22 01:33:59;;;;;;;21.38;6.35;;;4.60;80.20;;;;;;5053863;28;20040;-55
2021/03/22 01:36:27;;;;;;;27.27;5.80;;;4.50;80.40;;;;;;5071141;28;20024;-57
2021/03/22 01:38:59;;;;;;;23.70;6.57;;;4.50;80.40;;;;;;5070625;28;20034;-57
2021/03/22 01:41:51;;;;;;;20.05;5.80;;;4.50;80.30;;;;;;5071054;28;20040;-57
2021/03/22 01:44:31;;;;;;;26.55;5.93;;;4.40;81.10;;;;;;5071637;28;20024;-56
2021/03/22 01:47:07;;;;;;;20.60;5.70;;;4.20;81.80;;;;;;5070164;28;20044;-55
2021/03/22 01:49:46;;;;;;;27.23;6.90;;;4.20;81.50;;;;;;5070645;28;20039;-53
2021/03/22 01:52:12;;;;;;;29.13;6.63;;;4.20;81.90;;;;;;5077806;28;20029;-53
2021/03/22 01:54:38;;;;;;;26.80;5.63;;;4.40;81.20;;;;;;5071259;28;20167;-54
2021/03/22 01:57:33;;;;;;;28.15;6.20;;;4.40;80.60;;;;;;5053201;28;20029;-53
2021/03/22 02:00:07;;;;;;;23.73;6.47;;;4.50;80.70;;;;;;5071097;28;20081;-51
2021/03/22 02:02:34;;;;;;;26.67;6.50;;;4.50;80.60;;;;;;5071096;28;20028;-52
2021/03/22 02:05:00;;;;;;;32.47;7.25;;;4.40;81.20;;;;;;5066988;28;20036;-52
2021/03/22 02:07:27;;;;;;;29.40;5.30;;;4.30;81.40;;;;;;5063551;28;20425;-50
2021/03/22 02:09:52;;;;;;;24.85;6.32;;;4.30;81.50;;;;;;5051384;28;20033;-55
2021/03/22 02:12:19;;;;;;;25.52;6.28;;;4.30;81.70;;;;;;5070725;28;20043;-57
2021/03/22 02:14:46;;;;;;;22.25;5.75;;;4.30;82.00;;;;;;5071080;28;20380;-54
2021/03/22 02:17:29;;;;;;;22.05;5.90;;;4.30;81.90;;;;;;5071054;28;20028;-53
2021/03/22 02:20:06;;;;;;;30.90;7.22;;;4.20;82.40;;;;;;5053327;28;20108;-51
2021/03/22 02:22:41;;;;;;;32.47;8.05;;;4.10;82.60;;;;;;5063533;28;20064;-52
2021/03/22 02:25:28;;;;;;;;;;;4.00;83.20;;;;;;5061497;28;20028;-53
2021/03/22 02:28:33;;;;;;;19.88;5.82;;;4.10;83.20;;;;;;5066285;28;19915;-57
2021/03/22 02:31:20;;;;;;;26.52;6.90;;;4.20;82.80;;;;;;5071355;28;20021;-57
2021/03/22 02:34:16;;;;;;;24.98;6.97;;;4.20;82.50;;;;;;5052026;28;20051;-55
2021/03/22 02:36:53;;;;;;;33.63;6.57;;;4.10;82.80;;;;;;5054885;28;20136;-53
2021/03/22 02:39:18;;;;;;;30.45;7.97;;;4.20;82.70;;;;;;5070675;28;20505;-56
2021/03/22 02:41:53;;;;;;;22.95;8.13;;;4.00;83.50;;;;;;5053471;28;20049;-55
2021/03/22 02:44:21;;;;;;;32.67;7.30;;;4.10;83.20;;;;;;5053037;28;20052;-51
2021/03/22 02:46:54;;;;;;;27.88;6.18;;;4.10;83.30;;;;;;5052719;28;20159;-52
2021/03/22 02:49:20;;;;;;;26.85;7.10;;;4.00;83.70;;;;;;5070625;28;20037;-54
2021/03/22 02:52:26;;;;;;;24.95;6.75;;;4.10;83.40;;;;;;5070636;28;20028;-55
2021/03/22 02:55:10;;;;;;;25.08;6.93;;;4.30;82.80;;;;;;5052913;28;20025;-53
2021/03/22 02:57:57;;;;;;;23.98;6.40;;;4.20;83.20;;;;;;5071545;28;20171;-55
2021/03/22 03:00:56;;;;;;;31.33;6.15;;;4.10;83.50;;;;;;5055976;28;20064;-54
2021/03/22 03:03:24;;;;;;;20.50;6.47;;;4.20;82.90;;;;;;5054090;28;20049;-51
2021/03/22 03:05:52;;;;;;;27.88;7.10;;;4.10;83.30;;;;;;5074337;28;20684;-55
2021/03/22 03:08:22;;;;;;;27.33;6.28;;;4.10;83.40;;;;;;5073930;28;20043;-53
2021/03/22 03:10:48;;;;;;;27.90;6.90;;;4.10;83.70;;;;;;5073808;28;20037;-51
2021/03/22 03:13:14;;;;;;;25.48;7.70;;;4.20;83.20;;;;;;5074066;28;20392;-50
2021/03/22 03:15:39;;;;;;;23.02;5.60;;;4.10;83.50;;;;;;5074003;28;20028;-51
2021/03/22 03:18:05;;;;;;;31.35;8.18;;;4.10;83.60;;;;;;5071502;28;20028;-52
2021/03/22 03:20:32;;;;;;;26.70;6.43;;;4.20;83.20;;;;;;5055324;28;20021;-54
2021/03/22 03:22:59;;;;;;;26.17;6.93;;;4.40;82.70;;;;;;5073921;28;20056;-51
2021/03/22 03:25:26;;;;;;;25.75;7.07;;;4.40;82.70;;;;;;5071967;28;20086;-53
2021/03/22 03:27:52;;;;;;;26.98;6.07;;;4.40;82.60;;;;;;5055720;28;20059;-53
2021/03/22 03:30:28;;;;;;;29.70;6.28;;;4.40;82.60;;;;;;5055519;28;20063;-53
2021/03/22 03:32:54;;;;;;;25.50;5.82;;;4.30;82.90;;;;;;5073473;28;20040;-52
2021/03/22 03:35:23;;;;;;;21.48;6.72;;;4.20;83.40;;;;;;5073782;28;20024;-56
2021/03/22 03:37:49;;;;;;;26.63;6.30;;;4.30;83.10;;;;;;5074136;28;20044;-54
2021/03/22 03:40:25;;;;;;;24.40;5.68;;;4.20;83.30;;;;;;5073772;28;20040;-56
2021/03/22 03:42:51;;;;;;;23.50;6.45;;;4.30;83.00;;;;;;5072904;28;20082;-57
2021/03/22 03:45:17;;;;;;;27.70;6.63;;;4.30;82.80;;;;;;5072699;28;20040;-54
2021/03/22 03:47:45;;;;;;;24.92;6.43;;;4.30;83.10;;;;;;5072286;28;20064;-53
2021/03/22 03:50:16;;;;;;;24.55;5.90;;;4.30;82.90;;;;;;5073217;28;20549;-52
2021/03/22 03:52:43;;;;;;;21.60;6.07;;;4.20;83.80;;;;;;5073213;28;20040;-55
2021/03/22 03:55:09;;;;;;;28.52;6.40;;;4.20;83.60;;;;;;5073617;28;20474;-54
2021/03/22 03:57:35;;;;;;;24.63;6.82;;;4.30;83.50;;;;;;5055080;28;20123;-55
2021/03/22 04:00:03;;;;;;;26.77;6.70;;;4.20;83.70;;;;;;5055436;28;20440;-51
2021/03/22 04:02:29;;;;;;;31.50;7.25;;;4.10;84.00;;;;;;5073124;28;20082;-56
2021/03/22 04:04:54;;;;;;;30.45;7.55;;;4.00;84.70;;;;;;5073340;28;20028;-57
2021/03/22 04:07:20;;;;;;;28.20;7.15;;;4.00;84.50;;;;;;5072978;28;20051;-55
2021/03/22 04:09:48;;;;;;;27.23;7.43;;;4.10;84.30;;;;;;5071597;28;20036;-54
2021/03/22 04:12:13;;;;;;;36.53;7.15;;;4.10;84.40;;;;;;5072500;28;20025;-50
2021/03/22 04:14:39;;;;;;;24.73;7.70;;;4.00;84.60;;;;;;5072623;28;20033;-54
2021/03/22 04:17:05;;;;;;;30.95;6.95;;;4.10;84.60;;;;;;5072665;28;20111;-53
2021/03/22 04:19:30;;;;;;;38.55;7.93;;;4.00;84.90;;;;;;5078388;28;20039;-55
2021/03/22 04:21:56;;;;;;;27.90;6.55;;;4.00;84.90;;;;;;5072266;28;20116;-55
2021/03/22 04:24:21;;;;;;;26.05;7.13;;;4.10;84.60;;;;;;5072515;28;20040;-51
2021/03/22 04:26:47;;;;;;;23.25;6.10;;;4.00;84.70;;;;;;5072168;28;20041;-52
2021/03/22 04:29:13;;;;;;;21.63;7.15;;;4.10;84.30;;;;;;5054225;28;20033;-54
2021/03/22 04:31:39;;;;;;;20.33;6.40;;;4.10;84.60;;;;;;5072362;28;20083;-57
2021/03/22 04:34:04;;;;;;;24.30;7.00;;;4.10;84.40;;;;;;5054852;28;20043;-56
2021/03/22 04:36:34;;;;;;;27.02;7.30;;;4.00;85.00;;;;;;5072269;28;20058;-51
2021/03/22 04:39:00;;;;;;;27.63;6.82;;;4.00;85.00;;;;;;5051975;28;20072;-54
2021/03/22 04:41:26;;;;;;;30.98;7.65;;;3.90;85.20;;;;;;5057673;28;20468;-53
2021/03/22 04:43:53;;;;;;;23.73;6.18;;;3.80;85.40;;;;;;5071746;28;20353;-52
2021/03/22 04:46:19;;;;;;;23.80;6.80;;;3.80;85.60;;;;;;5072409;28;20036;-54
2021/03/22 04:48:44;;;;;;;27.38;5.82;;;3.70;85.80;;;;;;5071573;28;20111;-53
2021/03/22 04:51:10;;;;;;;29.65;7.25;;;3.80;85.70;;;;;;5072319;28;20124;-52
2021/03/22 04:53:36;;;;;;;25.42;7.38;;;3.70;85.90;;;;;;5071865;28;20492;-55
2021/03/22 04:56:07;;;;;;;31.45;6.65;;;3.70;86.20;;;;;;5071973;28;20036;-51
2021/03/22 04:58:33;;;;;;;26.85;6.13;;;3.80;85.40;;;;;;5071701;28;20051;-52
2021/03/22 05:00:58;;;;;;;24.80;6.65;;;3.80;85.80;;;;;;5072115;28;20056;-50
2021/03/22 05:03:25;;;;;;;24.60;6.28;;;3.80;85.40;;;;;;5054020;28;20059;-53
2021/03/22 05:05:50;;;;;;;34.10;8.88;;;3.80;85.70;;;;;;5072195;28;20364;-52
2021/03/22 05:08:18;;;;;;;27.63;6.50;;;3.60;86.20;;;;;;5071266;28;20047;-52
2021/03/22 05:10:47;;;;;;;25.88;6.97;;;3.60;86.40;;;;;;5071605;28;20033;-50
2021/03/22 05:13:15;;;;;;;24.23;6.43;;;3.80;85.80;;;;;;5071712;28;20051;-52
2021/03/22 05:15:41;;;;;;;25.42;7.32;;;3.70;85.90;;;;;;5071885;28;20131;-54
2021/03/22 05:18:07;;;;;;;20.63;5.97;;;3.50;86.80;;;;;;5053312;28;20024;-54
2021/03/22 05:20:46;;;;;;;32.60;7.50;;;3.70;86.20;;;;;;5071956;28;20051;-52
2021/03/22 05:23:17;;;;;;;26.67;7.45;;;3.70;86.20;;;;;;5053503;28;20395;-51
2021/03/22 05:25:43;;;;;;;29.95;7.75;;;3.50;87.00;;;;;;5072341;28;20103;-56
2021/03/22 05:28:10;;;;;;;35.33;6.93;;;3.30;88.10;;;;;;5072164;28;20598;-57
2021/03/22 05:30:38;;;;;;;28.75;6.20;;;3.30;88.10;;;;;;5072642;28;20035;-59
2021/03/22 05:33:10;;;;;;;29.02;6.50;;;3.40;87.50;;;;;;5054196;28;20114;-57
2021/03/22 05:35:37;;;;;;;32.08;7.00;;;3.50;87.10;;;;;;5071796;28;20040;-54
2021/03/22 05:38:03;;;;;;;31.83;7.57;;;3.60;86.70;;;;;;5071108;28;20056;-53
2021/03/22 05:40:43;;;;;;;31.83;7.32;;;3.70;86.20;;;;;;5071602;28;20058;-52
2021/03/22 05:43:31;;;;;;;31.75;7.57;;;3.70;86.70;;;;;;5071470;28;20116;-55
2021/03/22 05:46:24;;;;;;;22.98;6.13;;;3.70;86.10;;;;;;5071749;28;20041;-55
2021/03/22 05:49:17;;;;;;;26.70;7.60;;;3.90;85.80;;;;;;5070775;28;20033;-52
2021/03/22 05:52:03;;;;;;;31.40;7.25;;;3.70;86.40;;;;;;5071515;28;20033;-55
2021/03/22 05:54:43;;;;;;;22.70;7.22;;;3.70;86.90;;;;;;5071355;28;20032;-53
2021/03/22 05:57:35;;;;;;;25.10;6.43;;;3.90;85.90;;;;;;5071352;28;20034;-55
2021/03/22 06:00:12;;;;;;;27.80;7.32;;;4.10;85.00;;;;;;5051495;28;20029;-52
2021/03/22 06:03:07;;;;;;;29.65;6.80;;;3.90;85.80;;;;;;5036774;28;20029;-56
2021/03/22 06:05:48;;;;;;;31.88;8.93;;;4.00;85.80;;;;;;5072082;28;20103;-55
2021/03/22 06:08:38;;;;;;;24.40;7.05;;;4.00;85.60;;;;;;5071643;28;20025;-56
2021/03/22 06:11:34;;;;;;;28.98;8.68;;;3.70;87.00;;;;;;5071422;28;20028;-56
2021/03/22 06:14:19;;;;;;;33.40;8.15;;;3.80;87.00;;;;;;5071724;28;20074;-57
2021/03/22 06:16:50;;;;;;;30.88;8.88;;;3.70;88.00;;;;;;5071601;28;20037;-55
2021/03/22 06:19:18;;;;;;;31.58;8.25;;;4.00;86.60;;;;;;5070489;28;20060;-54
2021/03/22 06:21:47;;;;;;;35.08;7.75;;;4.10;86.20;;;;;;5070696;28;20032;-53
2021/03/22 06:24:16;;;;;;;22.05;7.05;;;3.90;87.10;;;;;;5050337;28;20501;-53
2021/03/22 06:26:48;;;;;;;25.85;7.35;;;3.90;87.20;;;;;;5033009;28;20540;-56
2021/03/22 06:29:25;;;;;;;30.73;7.57;;;4.00;87.00;;;;;;5064593;28;20048;-55
2021/03/22 06:31:55;;;;;;;28.52;7.72;;;3.90;87.30;;;;;;5070990;28;20032;-52
2021/03/22 06:34:42;;;;;;;23.90;6.90;;;3.70;88.50;;;;;;5074222;28;20029;-53
2021/03/22 06:37:11;;;;;;;29.02;7.90;;;3.90;88.00;;;;;;5074884;28;20028;-55
2021/03/22 06:39:37;;;;;;;36.03;8.23;;;4.00;87.60;;;;;;5056475;28;20072;-53
2021/03/22 06:42:23;;;;;;;29.75;9.30;;;4.20;87.20;;;;;;5083645;28;20068;-53
2021/03/22 06:44:50;;;;;;;37.60;8.55;;;4.10;87.20;;;;;;5074540;28;20391;-53
2021/03/22 06:47:15;;;;;;;29.20;8.20;;;3.80;88.70;;;;;;5074566;28;20384;-55
2021/03/22 06:49:46;;;;;;;30.25;7.97;;;3.90;88.10;;;;;;5074738;28;20025;-55
2021/03/22 06:52:13;;;;;;;28.73;6.32;;;3.80;88.80;;;;;;5057308;28;20033;-56
2021/03/22 06:54:57;;;;;;;26.48;8.65;;;3.90;88.30;;;;;;5074414;28;20043;-56
2021/03/22 06:57:28;;;;;;;21.73;8.05;;;3.90;89.00;;;;;;5074380;28;20066;-53
2021/03/22 07:00:09;;;;;;;32.28;7.72;;;4.00;88.50;;;;;;5073826;28;20060;-55
2021/03/22 07:02:48;;;;;;;30.52;8.40;;;4.10;88.00;;;;;;5066319;28;20127;-55
2021/03/22 07:05:38;;;;;;;27.50;7.50;;;4.20;87.80;;;;;;5054319;28;20040;-53
2021/03/22 07:08:10;;;;;;;24.17;7.72;;;4.30;87.60;;;;;;5073919;28;20036;-53
2021/03/22 07:11:08;;;;;;;27.52;7.63;;;4.30;87.90;;;;;;5073494;28;20507;-57
2021/03/22 07:13:34;;;;;;;33.17;8.75;;;4.20;88.20;;;;;;5069236;28;20033;-54
2021/03/22 07:16:13;;;;;;;25.88;7.65;;;4.20;88.20;;;;;;5073442;28;20024;-56
2021/03/22 07:18:39;;;;;;;30.13;8.50;;;4.10;88.40;;;;;;5067098;28;20613;-58
2021/03/22 07:21:19;;;;;;;26.48;8.68;;;4.20;88.20;;;;;;5068810;28;20038;-56
2021/03/22 07:23:45;;;;;;;30.00;8.65;;;4.20;88.30;;;;;;5073818;28;20043;-54
2021/03/22 07:26:30;;;;;;;32.10;9.93;;;4.50;89.00;;;;;;5073622;28;20032;-56
2021/03/22 07:29:15;;;;;;;;;;;4.80;86.40;;;;;;5073682;28;20388;-57
2021/03/22 07:31:59;;;;;;;28.15;9.40;;;4.90;85.40;;;;;;5073430;28;19908;-60
2021/03/22 07:34:41;;;;;;;26.85;8.52;;;4.50;86.40;;;;;;5074030;28;20043;-57
2021/03/22 07:37:42;;;;;;;25.35;9.20;;;4.40;86.90;;;;;;5064355;28;20078;-55
2021/03/22 07:40:29;;;;;;;22.20;7.30;;;4.30;87.30;;;;;;5073020;28;20035;-57
2021/03/22 07:43:26;;;;;;;25.38;8.60;;;4.40;86.70;;;;;;5073440;28;20028;-54
2021/03/22 07:46:20;;;;;;;33.00;8.52;;;4.50;86.30;;;;;;5072947;28;20060;-56
2021/03/22 07:49:11;;;;;;;33.53;11.93;;;4.60;86.00;;;;;;5051114;28;20455;-55
2021/03/22 07:52:02;;;;;;;28.42;9.98;;;4.70;85.80;;;;;;5072896;28;20093;-52
2021/03/22 07:54:42;;;;;;;26.60;8.77;;;4.70;85.50;;;;;;5073491;28;20029;-58
2021/03/22 07:57:48;;;;;;;27.60;9.27;;;4.70;85.20;;;;;;5073047;28;20047;-55
2021/03/22 08:00:21;;;;;;;;;;;4.80;84.70;;;;;;5073545;28;20024;-57
2021/03/22 08:03:02;;;;;;;28.80;10.07;;;4.70;85.20;;;;;;5054964;28;19904;-55
2021/03/22 08:05:43;;;;;;;29.00;8.57;;;4.70;85.20;;;;;;5072629;28;20079;-56
2021/03/22 08:08:17;;;;;;;23.70;8.77;;;4.70;85.40;;;;;;5073063;28;20033;-53
2021/03/22 08:10:53;;;;;;;28.10;8.98;;;4.70;85.10;;;;;;5072357;28;20039;-55
2021/03/22 08:13:35;;;;;;;29.25;10.23;;;4.70;84.70;;;;;;5071287;28;20044;-54
2021/03/22 08:16:16;;;;;;;27.10;9.85;;;4.80;84.10;;;;;;5072085;28;20034;-51
2021/03/22 08:18:55;;;;;;;33.58;9.02;;;4.90;84.10;;;;;;5072229;28;20082;-53
2021/03/22 08:21:33;;;;;;;27.10;8.38;;;5.10;83.50;;;;;;5070954;28;20033;-55
2021/03/22 08:24:23;;;;;;;31.65;8.32;;;5.00;84.30;;;;;;5069530;28;20035;-54
2021/03/22 08:26:49;;;;;;;25.02;8.82;;;5.00;84.20;;;;;;5072354;28;20399;-58
2021/03/22 08:29:34;;;;;;;32.17;9.57;;;5.10;83.80;;;;;;5072233;28;20037;-54
2021/03/22 08:32:16;;;;;;;;;;;5.00;83.70;;;;;;5058639;28;20048;-51
2021/03/22 08:34:59;;;;;;;29.92;9.68;;;5.30;83.50;;;;;;5072718;28;20386;-55
2021/03/22 08:37:45;;;;;;;29.73;10.15;;;5.00;84.10;;;;;;5072601;28;20032;-50
2021/03/22 08:40:17;;;;;;;30.55;10.13;;;5.00;84.30;;;;;;5072793;28;20032;-51
2021/03/22 08:42:48;;;;;;;34.92;10.40;;;5.10;83.90;;;;;;5072440;28;20391;-52
2021/03/22 08:45:37;;;;;;;34.45;10.52;;;5.10;83.80;;;;;;5093827;28;20039;-52
2021/03/22 08:48:44;;;;;;;34.72;10.73;;;5.10;83.50;;;;;;5081044;28;20428;-59
2021/03/22 08:51:25;;;;;;;30.67;11.23;;;5.10;83.70;;;;;;5046011;28;20060;-57
2021/03/22 08:53:52;;;;;;;33.42;10.90;;;5.20;82.90;;;;;;5072325;28;20387;-53
2021/03/22 08:56:42;;;;;;;33.17;10.80;;;5.30;82.40;;;;;;5054519;28;20037;-53
2021/03/22 08:59:17;;;;;;;35.22;10.10;;;5.30;82.70;;;;;;5070709;28;20119;-56
2021/03/22 09:01:43;;;;;;;25.42;10.40;;;5.30;82.50;;;;;;5072061;28;20243;-57
2021/03/22 09:04:21;;;;;;;33.90;10.60;;;5.40;82.20;;;;;;5053957;28;20040;-55
2021/03/22 09:07:01;;;;;;;35.17;11.82;;;5.50;81.30;;;;;;5071950;28;20033;-52
2021/03/22 09:09:30;;;;;;;30.23;10.65;;;5.60;81.20;;;;;;5051947;28;20037;-54
2021/03/22 09:11:56;;;;;;;21.23;10.50;;;5.80;80.80;;;;;;5052387;28;20366;-54
2021/03/22 09:14:48;;;;;;;28.02;10.00;;;5.70;80.60;;;;;;5071407;28;20119;-56
2021/03/22 09:17:48;;;;;;;25.95;10.27;;;5.80;80.70;;;;;;5069993;28;20041;-54
2021/03/22 09:20:27;;;;;;;29.48;10.55;;;6.00;80.00;;;;;;5056690;28;20115;-56
2021/03/22 09:23:00;;;;;;;24.42;9.95;;;6.00;78.80;;;;;;5067714;28;20024;-55
2021/03/22 09:25:56;;;;;;;28.02;10.60;;;5.90;79.30;;;;;;5065436;28;20060;-57
2021/03/22 09:28:24;;;;;;;;;;;5.90;79.90;;;;;;5071578;28;20116;-56
2021/03/22 09:31:16;;;;;;;30.38;10.90;;;5.90;79.70;;;;;;5070194;28;20453;-58
2021/03/22 09:33:49;;;;;;;27.65;10.95;;;6.20;78.40;;;;;;5062272;28;20037;-56
2021/03/22 09:36:38;;;;;;;32.22;11.23;;;6.40;77.00;;;;;;5091982;28;20158;-58
2021/03/22 09:39:24;;;;;;;34.30;10.43;;;6.20;78.00;;;;;;5075256;28;20033;-54
2021/03/22 09:41:55;;;;;;;25.55;10.15;;;6.50;77.30;;;;;;5071114;28;20044;-54
2021/03/22 09:44:34;;;;;;;24.08;10.55;;;6.50;76.00;;;;;;5071389;28;20043;-62
2021/03/22 09:47:23;;;;;;;26.52;9.95;;;6.60;76.20;;;;;;5048370;28;20087;-53
2021/03/22 09:50:35;;;;;;;23.95;10.32;;;6.70;74.90;;;;;;5070013;28;20085;-60
2021/03/22 09:53:29;;;;;;;24.13;9.27;;;6.70;75.40;;;;;;5061830;28;20032;-57
2021/03/22 09:55:57;;;;;;;29.13;10.02;;;6.80;74.00;;;;;;5071371;28;20128;-57
2021/03/22 09:58:38;;;;;;;22.15;9.00;;;6.90;74.20;;;;;;5071228;28;20448;-57
2021/03/22 10:01:24;;;;;;;33.78;11.73;;;7.00;72.10;;;;;;5053226;28;20123;-56
2021/03/22 10:04:17;;;;;;;19.85;9.15;;;7.00;72.60;;;;;;5061890;28;20064;-53
2021/03/22 10:07:03;;;;;;;27.55;10.10;;;6.70;73.60;;;;;;5070736;28;20032;-53
2021/03/22 10:10:00;;;;;;;21.92;8.02;;;6.90;72.40;;;;;;5073939;28;20101;-53
2021/03/22 10:12:32;;;;;;;19.98;8.65;;;6.90;71.10;;;;;;5058502;28;20029;-55
2021/03/22 10:15:17;;;;;;;24.15;8.15;;;6.90;71.80;;;;;;5060174;28;20120;-52
2021/03/22 10:18:01;;;;;;;20.92;8.55;;;6.90;71.60;;;;;;5065422;28;20037;-57
2021/03/22 10:20:43;;;;;;;16.85;7.32;;;7.20;70.50;;;;;;5073387;28;20491;-54
2021/03/22 10:23:39;;;;;;;22.52;7.75;;;7.20;68.70;;;;;;5063916;28;20099;-58
2021/03/22 10:26:35;;;;;;;17.35;8.30;;;7.10;67.30;;;;;;5041721;28;20028;-53
2021/03/22 10:29:10;;;;;;;18.08;7.45;;;7.20;68.90;;;;;;5060600;28;20024;-53
2021/03/22 10:31:35;;;;;;;16.00;6.75;;;7.20;69.10;;;;;;5071611;28;20132;-55
2021/03/22 10:34:02;;;;;;;19.27;7.43;;;7.20;67.20;;;;;;5053438;28;20086;-57
2021/03/22 10:36:36;;;;;;;17.20;6.45;;;7.20;67.30;;;;;;5071144;28;20123;-55
2021/03/22 10:39:07;;;;;;;;;;;7.20;66.60;;;;;;5073112;28;20025;-59
2021/03/22 10:41:37;;;;;;;19.65;7.22;;;7.30;64.70;;;;;;5072663;28;19912;-58
2021/03/22 10:44:26;;;;;;;19.55;6.88;;;7.50;65.30;;;;;;5073100;28;20033;-56
2021/03/22 10:47:11;;;;;;;15.73;7.97;;;7.40;65.30;;;;;;5056035;28;20066;-59
2021/03/22 10:49:38;;;;;;;19.58;8.05;;;7.60;64.60;;;;;;5072457;28;20028;-55
2021/03/22 10:52:21;;;;;;;20.17;8.07;;;7.70;65.00;;;;;;5054867;28;20341;-56
2021/03/22 10:54:47;;;;;;;22.38;7.75;;;7.60;64.50;;;;;;5073144;28;20495;-55
2021/03/22 10:57:15;;;;;;;20.70;7.50;;;7.60;65.30;;;;;;5055495;28;20097;-56
2021/03/22 10:59:47;;;;;;;12.82;6.40;;;7.70;64.00;;;;;;5054797;28;20372;-58
2021/03/22 11:02:29;;;;;;;18.08;6.90;;;7.90;63.20;;;;;;5093618;28;20044;-59
2021/03/22 11:04:57;;;;;;;17.80;7.03;;;7.90;62.80;;;;;;5080223;28;20112;-58
2021/03/22 11:07:25;;;;;;;19.52;6.13;;;8.10;62.90;;;;;;5073341;28;20033;-57
2021/03/22 11:09:56;;;;;;;19.13;7.22;;;8.50;62.60;;;;;;5073661;28;20032;-57
2021/03/22 11:12:26;;;;;;;17.48;6.70;;;8.60;62.20;;;;;;5063631;28;20036;-59
2021/03/22 11:15:15;;;;;;;21.95;7.28;;;8.50;62.50;;;;;;5049679;28;20120;-63
2021/03/22 11:17:48;;;;;;;19.60;7.10;;;8.20;62.90;;;;;;5073549;28;20051;-59
2021/03/22 11:20:15;;;;;;;15.43;6.28;;;7.90;63.40;;;;;;5058760;28;20024;-61
2021/03/22 11:22:44;;;;;;;17.60;6.60;;;8.00;62.40;;;;;;5035618;28;565260;-59
2021/03/22 11:25:29;;;;;;;14.18;6.57;;;8.10;62.20;;;;;;5048413;28;20622;-59
2021/03/22 11:27:58;;;;;;;18.17;6.50;;;8.30;62.00;;;;;;5058518;28;20356;-58
2021/03/22 11:30:57;;;;;;;17.85;7.57;;;8.20;62.70;;;;;;5073205;28;20036;-57
2021/03/22 11:33:31;;;;;;;19.15;6.93;;;8.50;62.60;;;;;;5073750;28;20024;-56
2021/03/22 11:36:11;;;;;;;;;;;8.30;62.30;;;;;;5073858;28;20123;-55
2021/03/22 11:38:56;;;;;;;21.80;6.20;;;8.20;62.80;;;;;;5068255;28;20661;-55
2021/03/22 11:41:22;;;;;;;;;;;8.40;62.50;;;;;;5066510;28;20507;-58
2021/03/22 11:44:01;;;;;;;14.77;6.65;;;8.60;61.20;;;;;;5071406;28;19927;-56
2021/03/22 11:46:27;;;;;;;22.23;6.93;;;8.60;61.00;;;;;;5042639;28;20071;-62
2021/03/22 11:48:53;;;;;;;21.30;7.13;;;8.30;62.40;;;;;;5054769;28;20029;-60
2021/03/22 11:51:18;;;;;;;18.05;7.63;;;8.10;63.10;;;;;;5060380;28;20574;-57
2021/03/22 11:54:03;;;;;;;16.38;6.25;;;8.10;63.50;;;;;;5074514;28;20052;-59
2021/03/22 11:56:35;;;;;;;19.58;7.38;;;8.00;63.90;;;;;;5063749;28;20064;-58
2021/03/22 11:59:19;;;;;;;19.42;6.88;;;8.20;64.10;;;;;;5073410;28;20032;-55
2021/03/22 12:02:04;;;;;;;25.67;9.55;;;8.30;62.80;;;;;;5073775;28;20031;-61
2021/03/22 12:04:30;;;;;;;13.88;7.15;;;8.50;62.60;;;;;;5081335;28;20047;-57
2021/03/22 12:07:01;;;;;;;20.20;8.10;;;8.70;62.60;;;;;;5054950;28;20028;-58
2021/03/22 12:09:28;;;;;;;17.25;7.15;;;8.80;62.10;;;;;;5055784;28;20087;-60
2021/03/22 12:11:56;;;;;;;18.02;7.82;;;8.80;59.60;;;;;;5082153;28;20101;-58
2021/03/22 12:14:22;;;;;;;15.00;7.60;;;8.50;61.00;;;;;;5064263;28;20028;-56
2021/03/22 12:17:01;;;;;;;18.33;7.38;;;8.40;61.90;;;;;;5073339;28;20028;-63
2021/03/22 12:19:45;;;;;;;18.25;6.70;;;8.50;61.80;;;;;;5072556;28;20032;-55
2021/03/22 12:22:16;;;;;;;16.63;7.72;;;8.60;60.20;;;;;;5072338;28;20044;-56
2021/03/22 12:24:42;;;;;;;17.55;6.47;;;8.60;60.50;;;;;;5073168;28;20208;-57
2021/03/22 12:27:10;;;;;;;17.17;6.63;;;8.80;58.90;;;;;;5073381;28;20068;-59
2021/03/22 12:29:36;;;;;;;17.38;6.82;;;9.00;58.00;;;;;;5055270;28;20060;-62
2021/03/22 12:32:02;;;;;;;15.43;7.25;;;8.90;58.40;;;;;;5071614;28;20091;-56
2021/03/22 12:34:28;;;;;;;17.77;6.75;;;8.90;59.10;;;;;;5055174;28;20050;-54
2021/03/22 12:36:53;;;;;;;16.48;7.47;;;8.70;60.20;;;;;;5073354;28;20515;-58
2021/03/22 12:39:29;;;;;;;18.35;7.40;;;8.80;59.80;;;;;;5043686;28;20075;-57
2021/03/22 12:42:02;;;;;;;19.10;6.90;;;8.60;59.90;;;;;;5060023;28;20436;-56
2021/03/22 12:44:28;;;;;;;18.63;7.05;;;8.40;60.00;;;;;;5052684;28;20029;-59
2021/03/22 12:46:54;;;;;;;17.95;7.57;;;8.30;60.20;;;;;;5059000;28;20047;-56
2021/03/22 12:49:21;;;;;;;21.25;7.05;;;8.30;60.80;;;;;;5071769;28;20035;-58
2021/03/22 12:51:47;;;;;;;18.73;7.40;;;8.40;61.00;;;;;;5072584;28;20044;-55
2021/03/22 12:54:13;;;;;;;14.70;7.22;;;8.60;60.90;;;;;;5065978;28;20056;-59
2021/03/22 12:56:38;;;;;;;18.27;7.90;;;8.70;60.70;;;;;;5059011;28;20033;-55
2021/03/22 12:59:05;;;;;;;17.73;8.13;;;8.60;61.20;;;;;;5070793;28;20152;-54
2021/03/22 13:01:31;;;;;;;21.65;7.40;;;8.60;61.50;;;;;;5053848;28;20526;-59
2021/03/22 13:03:56;;;;;;;16.38;8.00;;;8.40;61.70;;;;;;5069383;28;20120;-58
2021/03/22 13:06:24;;;;;;;14.50;6.90;;;8.60;61.10;;;;;;5053966;28;20046;-53
2021/03/22 13:08:49;;;;;;;16.13;8.38;;;8.90;59.40;;;;;;5071650;28;20097;-58
2021/03/22 13:11:22;;;;;;;17.75;7.43;;;9.00;58.60;;;;;;5053581;28;20423;-58
2021/03/22 13:13:48;;;;;;;21.52;8.00;;;9.10;58.70;;;;;;5052866;28;20048;-58
2021/03/22 13:16:19;;;;;;;19.60;7.95;;;9.10;58.60;;;;;;5053486;28;20495;-57
2021/03/22 13:18:44;;;;;;;23.15;8.40;;;9.20;59.00;;;;;;5070817;28;20063;-54
2021/03/22 13:21:14;;;;;;;14.20;7.28;;;9.20;58.20;;;;;;5071353;28;20098;-57
2021/03/22 13:23:40;;;;;;;15.10;7.32;;;9.20;58.40;;;;;;5053639;28;20220;-57